Main page
METAR-TAF:

METAR-TAF

Airports :

Netaji Subhas Chandra Bose International Airport

Kolkata, India

latitude: 22-39N, longitude: 088-27E, elevation: 4 m

Current weather observation

The report was made 25 minutes ago, at 14:30 UTC
Calm wind
Temperature 29°C
Humidity 84%
Pressure 1011 hPa
Visibility: 3200 m
Few clouds at a height of 2000 ft
haze

METAR: VECC 181430Z 00000KT 3200 HZ FEW020 29/26 Q1011 NOSIG

Time: 20:25 (14:55 UTC)

Forecast

The report was made 55 minutes ago, at 14:00 UTC
Forecast valid from 18 at 15 UTC to 18 at 24 UTC
Wind kt from the North
Visibility: 3000 m
Scattered clouds at a height of 2000 ft
haze
Becoming
from 18 at 20 UTC to 18 at 22 UTC
Visibility: 2000 m
mist

TAF: VECC 181400Z 1815/1824 00000KT 3000 HZ SCT020 BECMG 1820/1822 2000 BR

Weather observations and forecasts of more than 4000 airports (METAR and TAF reports).

The available stations are represented by yellow and red dots on the map.

Hover mouse over dot to see the name of the station.

Then click to see weather observations and forecasts.

To change the map : click on the green buttons with a black cross to zoom in, on the green button with a dash to zoom out, or on the green arrows for adjacent maps.


METAR-TAF: